Time;durP1;ratioP1;P1;durP2;ratioP2;P2;SDS_P1;SDS_P2;PMS_P1;PMS_P2;Temp;Humidity;BMP_temperature;BMP_pressure;BME280_temperature;BME280_humidity;BME280_pressure;Samples;Min_cycle;Max_cycle;Signal;HPM_P1;HPM_P2
2023/05/08 00:01:37;;;;;;;;;;;12.90;99.90;;;;;;5119621;28;19908;-61
2023/05/08 00:04:03;;;;;;;;;;;12.90;99.90;;;;;;5119033;28;19912;-61
2023/05/08 00:06:29;;;;;;;;;;;12.90;99.90;;;;;;5119043;28;19915;-61
2023/05/08 00:08:54;;;;;;;;;;;12.80;99.90;;;;;;5118883;28;19967;-61
2023/05/08 00:11:20;;;;;;;;;;;12.80;99.90;;;;;;5118508;28;19973;-61
2023/05/08 00:13:46;;;;;;;;;;;12.80;99.90;;;;;;5118724;28;20278;-61
2023/05/08 00:16:11;;;;;;;;;;;12.70;99.90;;;;;;5118691;28;19912;-61
2023/05/08 00:18:37;;;;;;;;;;;12.70;99.90;;;;;;5118803;28;19914;-61
2023/05/08 00:21:04;;;;;;;;;;;12.70;99.90;;;;;;5118618;28;19951;-61
2023/05/08 00:23:29;;;;;;;;;;;12.70;99.90;;;;;;5118682;28;19969;-61
2023/05/08 00:25:55;;;;;;;;;;;12.70;99.90;;;;;;5118898;28;19907;-61
2023/05/08 00:28:21;;;;;;;;;;;12.60;99.90;;;;;;5118880;28;19951;-61
2023/05/08 00:30:47;;;;;;;;;;;12.60;99.90;;;;;;5118882;28;19908;-61
2023/05/08 00:33:12;;;;;;;;;;;12.60;99.90;;;;;;5118531;28;19908;-61
2023/05/08 00:35:41;;;;;;;;;;;12.60;99.90;;;;;;5119023;28;19907;-61
2023/05/08 00:38:06;;;;;;;;;;;12.50;99.90;;;;;;5118977;28;19911;-61
2023/05/08 00:40:32;;;;;;;;;;;12.50;99.90;;;;;;5118968;28;20382;-61
2023/05/08 00:42:58;;;;;;;;;;;12.50;99.90;;;;;;5118443;28;20278;-61
2023/05/08 00:45:23;;;;;;;;;;;12.50;99.90;;;;;;5118551;28;19912;-61
2023/05/08 00:47:49;;;;;;;;;;;12.60;99.90;;;;;;5118331;28;19929;-61
2023/05/08 00:50:15;;;;;;;;;;;12.60;99.90;;;;;;5118172;28;19969;-61
2023/05/08 00:52:41;;;;;;;;;;;12.60;99.90;;;;;;5118236;28;19919;-61
2023/05/08 00:55:07;;;;;;;;;;;12.70;99.90;;;;;;5118772;28;20382;-61
2023/05/08 00:57:34;;;;;;;;;;;12.70;99.90;;;;;;5118396;28;20309;-60
2023/05/08 01:00:02;;;;;;;;;;;12.70;99.90;;;;;;5118729;28;19957;-61
2023/05/08 01:02:30;;;;;;;;;;;12.80;99.90;;;;;;5118345;28;19908;-61
2023/05/08 01:04:56;;;;;;;;;;;12.80;99.90;;;;;;5118555;28;19908;-61
2023/05/08 01:07:21;;;;;;;;;;;12.80;99.90;;;;;;5118079;28;19908;-61
2023/05/08 01:09:47;;;;;;;;;;;12.80;99.90;;;;;;5118161;28;20279;-61
2023/05/08 01:12:13;;;;;;;;;;;12.90;99.90;;;;;;5118136;28;19921;-61
2023/05/08 01:14:51;;;;;;;;;;;12.90;99.90;;;;;;5118090;28;20397;-61
2023/05/08 01:17:23;;;;;;;;;;;12.90;99.90;;;;;;5118158;28;19912;-61
2023/05/08 01:19:54;;;;;;;;;;;13.00;99.90;;;;;;5118060;28;19912;-61
2023/05/08 01:22:42;;;;;;;;;;;13.00;99.90;;;;;;5118178;28;19911;-61
2023/05/08 01:25:44;;;;;;;;;;;13.00;99.90;;;;;;5117936;28;19961;-61
2023/05/08 01:28:23;;;;;;;;;;;13.10;99.90;;;;;;5054905;28;19909;-61
2023/05/08 01:30:58;;;;;;;;;;;13.10;99.90;;;;;;5110697;28;19971;-61
2023/05/08 01:33:27;;;;;;;;;;;13.20;99.90;;;;;;5119310;28;20357;-61
2023/05/08 01:35:57;;;;;;;;;;;13.20;99.90;;;;;;5121603;28;19908;-61
2023/05/08 01:38:41;;;;;;;;;;;13.20;99.90;;;;;;5122216;28;19912;-61
2023/05/08 01:41:13;;;;;;;;;;;13.20;99.90;;;;;;5122131;28;19907;-61
2023/05/08 01:43:45;;;;;;;;;;;13.20;99.90;;;;;;5121659;28;20359;-61
2023/05/08 01:46:17;;;;;;;;;;;13.30;99.90;;;;;;5121831;28;19908;-61
2023/05/08 01:48:50;;;;;;;;;;;13.30;99.90;;;;;;5121840;28;20435;-61
2023/05/08 01:51:21;;;;;;;;;;;13.30;99.90;;;;;;5121724;28;20017;-60
2023/05/08 01:53:51;;;;;;;;;;;13.40;99.90;;;;;;5121865;28;19912;-61
2023/05/08 01:56:20;;;;;;;;;;;13.40;99.90;;;;;;5121572;28;19920;-61
2023/05/08 01:58:46;;;;;;;;;;;13.40;99.90;;;;;;5121815;28;19908;-61
2023/05/08 02:01:12;;;;;;;;;;;13.40;99.90;;;;;;5121647;28;19920;-61
2023/05/08 02:03:40;;;;;;;;;;;13.50;99.90;;;;;;5121627;28;20006;-61
2023/05/08 02:06:06;;;;;;;;;;;13.60;99.90;;;;;;5121116;28;19908;-61
2023/05/08 02:08:33;;;;;;;;;;;13.70;99.90;;;;;;5121780;28;19914;-61
2023/05/08 02:10:59;;;;;;;;;;;13.80;99.90;;;;;;5121354;28;19930;-61
2023/05/08 02:13:26;;;;;;;;;;;13.90;99.90;;;;;;5121066;28;20334;-61
2023/05/08 02:15:53;;;;;;;;;;;13.90;99.90;;;;;;5103408;28;19941;-61
2023/05/08 02:18:23;;;;;;;;;;;14.00;99.90;;;;;;5121215;28;20002;-60
2023/05/08 02:20:49;;;;;;;;;;;14.00;99.90;;;;;;5121106;28;20410;-61
2023/05/08 02:23:16;;;;;;;;;;;14.00;99.90;;;;;;5121100;28;19915;-61
2023/05/08 02:25:43;;;;;;;;;;;14.00;99.90;;;;;;5120982;28;20358;-61
2023/05/08 02:28:09;;;;;;;;;;;14.00;99.90;;;;;;5120762;28;20390;-61
2023/05/08 02:30:35;;;;;;;;;;;14.10;99.90;;;;;;5121230;28;19907;-61
2023/05/08 02:33:02;;;;;;;;;;;14.10;99.90;;;;;;5121113;28;19914;-60
2023/05/08 02:35:29;;;;;;;;;;;14.10;99.90;;;;;;5120736;28;19908;-61
2023/05/08 02:37:56;;;;;;;;;;;14.20;99.90;;;;;;5120898;28;20400;-61
2023/05/08 02:40:23;;;;;;;;;;;14.20;99.90;;;;;;5120722;28;20458;-61
2023/05/08 02:42:49;;;;;;;;;;;14.20;99.90;;;;;;5120911;28;19912;-60
2023/05/08 02:45:15;;;;;;;;;;;14.20;99.90;;;;;;5120602;28;19995;-61
2023/05/08 02:48:04;;;;;;;;;;;14.30;99.90;;;;;;5120428;28;19978;-61
2023/05/08 02:50:47;;;;;;;;;;;14.30;99.90;;;;;;5120551;28;20018;-61
2023/05/08 02:53:17;;;;;;;;;;;14.20;99.90;;;;;;5120854;28;19915;-61
2023/05/08 02:55:47;;;;;;;;;;;14.30;99.90;;;;;;5120472;28;19908;-60
2023/05/08 02:58:19;;;;;;;;;;;14.30;99.90;;;;;;5120749;28;19919;-61
2023/05/08 03:00:59;;;;;;;;;;;14.30;99.90;;;;;;5120263;28;20056;-61
2023/05/08 03:03:31;;;;;;;;;;;14.30;99.90;;;;;;5120551;28;19908;-61
2023/05/08 03:05:59;;;;;;;;;;;14.30;99.90;;;;;;5120337;28;20350;-61
2023/05/08 03:08:33;;;;;;;;;;;14.30;99.90;;;;;;5120395;28;20371;-61
2023/05/08 03:11:02;;;;;;;;;;;14.40;99.90;;;;;;5119895;28;20375;-61
2023/05/08 03:13:30;;;;;;;;;;;14.30;99.90;;;;;;5119840;28;19908;-61
2023/05/08 03:15:57;;;;;;;;;;;14.40;99.90;;;;;;5120158;28;19950;-61
2023/05/08 03:18:25;;;;;;;;;;;14.40;99.90;;;;;;5120020;28;20277;-61
2023/05/08 03:20:53;;;;;;;;;;;14.30;99.90;;;;;;5120144;28;19915;-61
2023/05/08 03:23:19;;;;;;;;;;;14.60;99.90;;;;;;5119991;28;19915;-61
2023/05/08 03:25:45;;;;;;;;;;;14.30;99.90;;;;;;5120030;28;19915;-61
2023/05/08 03:28:11;;;;;;;;;;;14.30;99.90;;;;;;5119777;28;19908;-61
2023/05/08 03:30:39;;;;;;;;;;;14.30;99.90;;;;;;5119897;28;20366;-61
2023/05/08 03:33:06;;;;;;;;;;;14.30;99.90;;;;;;5119837;28;19908;-61
2023/05/08 03:35:35;;;;;;;;;;;14.30;99.90;;;;;;5119794;28;19911;-61
2023/05/08 03:38:01;;;;;;;;;;;14.30;99.90;;;;;;5119306;28;20405;-61
2023/05/08 03:40:26;;;;;;;;;;;14.30;99.90;;;;;;5119456;28;19908;-61
2023/05/08 03:42:52;;;;;;;;;;;14.40;99.90;;;;;;5119649;28;19908;-61
2023/05/08 03:45:19;;;;;;;;;;;14.30;99.90;;;;;;5119889;28;20415;-61
2023/05/08 03:47:45;;;;;;;;;;;14.30;99.90;;;;;;5119402;28;19915;-61
2023/05/08 03:50:11;;;;;;;;;;;14.30;99.90;;;;;;5119542;28;19908;-61
2023/05/08 03:52:37;;;;;;;;;;;14.30;99.90;;;;;;5119443;28;20299;-61
2023/05/08 03:55:03;;;;;;;;;;;14.30;99.90;;;;;;5119433;28;20355;-62
2023/05/08 03:57:40;;;;;;;;;;;14.40;99.90;;;;;;5118740;28;19912;-61
2023/05/08 04:00:08;;;;;;;;;;;14.40;99.90;;;;;;5118964;28;20305;-61
2023/05/08 04:02:42;;;;;;;;;;;14.30;99.90;;;;;;5119587;28;19916;-61
2023/05/08 04:05:27;;;;;;;;;;;14.30;99.90;;;;;;5119114;28;19908;-61
2023/05/08 04:07:58;;;;;;;;;;;14.40;99.90;;;;;;5118996;28;19911;-61
2023/05/08 04:10:32;;;;;;;;;;;14.30;99.90;;;;;;5119433;28;19919;-61
2023/05/08 04:13:14;;;;;;;;;;;14.30;99.90;;;;;;5119052;28;19957;-61
2023/05/08 04:15:47;;;;;;;;;;;14.30;99.90;;;;;;5119126;28;19931;-61
2023/05/08 04:18:17;;;;;;;;;;;14.30;99.90;;;;;;5118758;28;19912;-61
2023/05/08 04:20:45;;;;;;;;;;;14.30;99.90;;;;;;5119161;28;19914;-61
2023/05/08 04:23:13;;;;;;;;;;;14.30;99.90;;;;;;5118952;28;19908;-61
2023/05/08 04:25:39;;;;;;;;;;;14.30;99.90;;;;;;5118906;28;19930;-61
2023/05/08 04:28:05;;;;;;;;;;;14.30;99.90;;;;;;5118803;28;19923;-61
2023/05/08 04:30:31;;;;;;;;;;;14.30;99.90;;;;;;5118455;28;20250;-61
2023/05/08 04:32:58;;;;;;;;;;;14.30;99.90;;;;;;5118620;28;19957;-61
2023/05/08 04:35:23;;;;;;;;;;;14.30;99.90;;;;;;5118435;28;19939;-61
2023/05/08 04:37:49;;;;;;;;;;;14.30;99.90;;;;;;5118781;28;19919;-61
2023/05/08 04:40:15;;;;;;;;;;;14.30;99.90;;;;;;5118359;28;19908;-61
2023/05/08 04:42:42;;;;;;;;;;;14.30;99.90;;;;;;5118432;28;19907;-61
2023/05/08 04:45:08;;;;;;;;;;;14.30;99.90;;;;;;5118528;28;19994;-61
2023/05/08 04:47:34;;;;;;;;;;;14.30;99.90;;;;;;5118582;28;20456;-61
2023/05/08 04:50:00;;;;;;;;;;;14.30;99.90;;;;;;5118882;28;19949;-61
2023/05/08 04:52:25;;;;;;;;;;;14.30;99.90;;;;;;5118364;28;19981;-61
2023/05/08 04:54:51;;;;;;;;;;;14.30;99.90;;;;;;5118686;28;20438;-61
2023/05/08 04:57:17;;;;;;;;;;;14.30;99.90;;;;;;5118450;28;19999;-61
2023/05/08 04:59:42;;;;;;;;;;;14.30;99.90;;;;;;5118494;28;19915;-61
2023/05/08 05:02:08;;;;;;;;;;;14.30;99.90;;;;;;5118512;28;19908;-61
2023/05/08 05:04:35;;;;;;;;;;;14.30;99.90;;;;;;5118712;28;20367;-61
2023/05/08 05:07:01;;;;;;;;;;;14.30;99.90;;;;;;5118030;28;19908;-61
2023/05/08 05:09:27;;;;;;;;;;;14.30;99.90;;;;;;5122239;28;20000;-61
2023/05/08 05:11:53;;;;;;;;;;;14.30;99.90;;;;;;5122694;28;19916;-61
2023/05/08 05:14:18;;;;;;;;;;;14.30;99.90;;;;;;5122527;28;19966;-61
2023/05/08 05:16:44;;;;;;;;;;;14.30;99.90;;;;;;5122365;28;19911;-61
2023/05/08 05:19:10;;;;;;;;;;;14.30;99.90;;;;;;5122429;28;19915;-61
2023/05/08 05:21:39;;;;;;;;;;;14.30;99.90;;;;;;5122228;28;19911;-61
2023/05/08 05:24:05;;;;;;;;;;;14.30;99.90;;;;;;5122435;28;19908;-61
2023/05/08 05:26:30;;;;;;;;;;;14.30;99.90;;;;;;5122530;28;20298;-61
2023/05/08 05:28:56;;;;;;;;;;;14.30;99.90;;;;;;5122118;28;20252;-61
2023/05/08 05:31:22;;;;;;;;;;;14.40;99.90;;;;;;5122442;28;19908;-61
2023/05/08 05:33:48;;;;;;;;;;;14.40;99.90;;;;;;5122288;28;19953;-61
2023/05/08 05:36:13;;;;;;;;;;;14.40;99.90;;;;;;5121778;28;19923;-61
2023/05/08 05:38:39;;;;;;;;;;;14.40;99.90;;;;;;5122343;28;19908;-61
2023/05/08 05:41:05;;;;;;;;;;;14.40;99.90;;;;;;5122277;28;19933;-61
2023/05/08 05:43:31;;;;;;;;;;;14.40;99.90;;;;;;5122135;28;19914;-61
2023/05/08 05:46:02;;;;;;;;;;;14.40;99.90;;;;;;5122057;28;19915;-61
2023/05/08 05:48:28;;;;;;;;;;;14.40;99.90;;;;;;5121891;28;20003;-61
2023/05/08 05:50:53;;;;;;;;;;;14.50;99.90;;;;;;5121941;28;19972;-61
2023/05/08 05:53:19;;;;;;;;;;;14.50;99.90;;;;;;5121940;28;20002;-61
2023/05/08 05:55:45;;;;;;;;;;;14.50;99.90;;;;;;5121663;28;19908;-61
2023/05/08 05:58:11;;;;;;;;;;;14.50;99.90;;;;;;5121491;28;19918;-61
2023/05/08 06:00:36;;;;;;;;;;;14.50;99.90;;;;;;5122069;28;19908;-61
2023/05/08 06:03:03;;;;;;;;;;;14.50;99.90;;;;;;5121679;28;19930;-61
2023/05/08 06:05:28;;;;;;;;;;;14.50;99.90;;;;;;5121409;28;19907;-61
2023/05/08 06:07:54;;;;;;;;;;;14.50;99.90;;;;;;5121719;28;19908;-60
2023/05/08 06:10:20;;;;;;;;;;;14.50;99.90;;;;;;5121327;28;20045;-61
2023/05/08 06:12:45;;;;;;;;;;;14.60;99.90;;;;;;5121355;28;19908;-61
2023/05/08 06:15:13;;;;;;;;;;;14.60;99.90;;;;;;5120893;28;19919;-61
2023/05/08 06:17:39;;;;;;;;;;;14.60;99.90;;;;;;5121517;28;19953;-61
2023/05/08 06:20:05;;;;;;;;;;;14.60;99.90;;;;;;5120945;28;19952;-61
2023/05/08 06:22:31;;;;;;;;;;;14.60;99.90;;;;;;5121179;28;19914;-61
2023/05/08 06:24:56;;;;;;;;;;;14.60;99.90;;;;;;5121606;28;19908;-61
2023/05/08 06:27:22;;;;;;;;;;;14.60;99.90;;;;;;5121315;28;19908;-61
2023/05/08 06:29:50;;;;;;;;;;;14.60;99.90;;;;;;5120990;28;19965;-61
2023/05/08 06:32:16;;;;;;;;;;;14.60;99.90;;;;;;5120994;28;19908;-61
2023/05/08 06:34:42;;;;;;;;;;;14.60;99.90;;;;;;5121112;28;19956;-61
2023/05/08 06:37:07;;;;;;;;;;;14.60;99.90;;;;;;5121030;28;19911;-61
2023/05/08 06:39:33;;;;;;;;;;;14.60;99.90;;;;;;5121030;28;20014;-61
2023/05/08 06:41:58;;;;;;;;;;;14.60;99.90;;;;;;5121257;28;19908;-61
2023/05/08 06:44:24;;;;;;;;;;;14.60;99.90;;;;;;5120956;28;19908;-62
2023/05/08 06:46:50;;;;;;;;;;;14.70;99.90;;;;;;5120456;28;19907;-61
2023/05/08 06:49:15;;;;;;;;;;;14.70;99.90;;;;;;5120651;28;19915;-61
2023/05/08 06:51:41;;;;;;;;;;;14.70;99.90;;;;;;5121069;28;19912;-61
2023/05/08 06:54:07;;;;;;;;;;;14.70;99.90;;;;;;5120555;28;19908;-61
2023/05/08 06:56:33;;;;;;;;;;;14.70;99.90;;;;;;5120629;28;19912;-61
2023/05/08 06:58:59;;;;;;;;;;;14.70;99.90;;;;;;5120707;28;19964;-61
2023/05/08 07:01:25;;;;;;;;;;;14.80;99.90;;;;;;5120444;28;19914;-61
2023/05/08 07:03:50;;;;;;;;;;;14.70;99.90;;;;;;5120517;28;19915;-61
2023/05/08 07:06:16;;;;;;;;;;;14.80;99.90;;;;;;5120251;28;20415;-61
2023/05/08 07:08:41;;;;;;;;;;;14.80;99.90;;;;;;5120579;28;19937;-61
2023/05/08 07:11:08;;;;;;;;;;;14.80;99.90;;;;;;5120298;28;19915;-61
2023/05/08 07:13:37;;;;;;;;;;;14.80;99.90;;;;;;5119968;28;20294;-61
2023/05/08 07:16:08;;;;;;;;;;;14.80;99.90;;;;;;5120275;28;19912;-61
2023/05/08 07:18:33;;;;;;;;;;;14.80;99.90;;;;;;5120074;28;19908;-61
2023/05/08 07:20:59;;;;;;;;;;;14.80;99.90;;;;;;5120237;28;19915;-61
2023/05/08 07:23:26;;;;;;;;;;;14.60;99.90;;;;;;5120119;28;20399;-61
2023/05/08 07:25:52;;;;;;;;;;;14.40;99.90;;;;;;5120085;28;20002;-61
2023/05/08 07:28:17;;;;;;;;;;;14.30;99.90;;;;;;5120010;28;19952;-61
2023/05/08 07:30:43;;;;;;;;;;;14.20;99.90;;;;;;5119273;27;20003;-61
2023/05/08 07:33:08;;;;;;;;;;;14.20;99.90;;;;;;5119649;28;20462;-61
2023/05/08 07:35:36;;;;;;;;;;;14.20;99.90;;;;;;5120142;28;19908;-61
2023/05/08 07:38:02;;;;;;;;;;;14.10;99.90;;;;;;5119732;28;20363;-61
2023/05/08 07:40:27;;;;;;;;;;;14.10;99.90;;;;;;5119905;28;19911;-61
2023/05/08 07:42:53;;;;;;;;;;;14.00;99.90;;;;;;5119952;28;20492;-61
2023/05/08 07:45:19;;;;;;;;;;;14.00;99.90;;;;;;5119271;28;19927;-61
2023/05/08 07:47:48;;;;;;;;;;;14.00;99.90;;;;;;5119477;28;20002;-61
2023/05/08 07:50:14;;;;;;;;;;;14.10;99.90;;;;;;5119626;28;20355;-61
2023/05/08 07:52:39;;;;;;;;;;;14.20;99.90;;;;;;5119323;28;20117;-61
2023/05/08 07:55:05;;;;;;;;;;;14.20;99.90;;;;;;5119657;28;20369;-61
2023/05/08 07:57:37;;;;;;;;;;;14.20;99.90;;;;;;5119417;28;19912;-61
2023/05/08 08:00:07;;;;;;;;;;;14.30;99.90;;;;;;5117112;28;19916;-60
2023/05/08 08:02:32;;;;;;;;;;;14.30;99.90;;;;;;5118121;28;19922;-61
2023/05/08 08:04:58;;;;;;;;;;;14.30;99.90;;;;;;5119109;28;19907;-61
2023/05/08 08:07:23;;;;;;;;;;;14.40;99.90;;;;;;5119183;28;19954;-62
2023/05/08 08:09:49;;;;;;;;;;;14.40;99.90;;;;;;5118731;28;19962;-61
2023/05/08 08:12:15;;;;;;;;;;;14.50;99.90;;;;;;5118978;28;19991;-61
2023/05/08 08:14:41;;;;;;;;;;;14.60;99.90;;;;;;5118742;28;19946;-61
2023/05/08 08:17:06;;;;;;;;;;;14.70;99.90;;;;;;5118677;28;19912;-61
2023/05/08 08:19:34;;;;;;;;;;;14.70;99.90;;;;;;5118145;28;20225;-61
2023/05/08 08:22:00;;;;;;;;;;;14.80;99.90;;;;;;5118800;28;19957;-61
2023/05/08 08:24:27;;;;;;;;;;;14.80;99.90;;;;;;5118665;28;19915;-61
2023/05/08 08:26:54;;;;;;;;;;;14.80;99.90;;;;;;5118903;28;19979;-61
2023/05/08 08:29:20;;;;;;;;;;;14.70;99.90;;;;;;5118999;28;19956;-61
2023/05/08 08:31:46;;;;;;;;;;;14.60;99.90;;;;;;5118901;28;19998;-61
2023/05/08 08:34:12;;;;;;;;;;;14.50;99.90;;;;;;5118878;28;19999;-61
2023/05/08 08:36:38;;;;;;;;;;;14.50;99.90;;;;;;5117458;28;19911;-61
2023/05/08 08:39:04;;;;;;;;;;;14.60;99.90;;;;;;5117166;28;20015;-61
2023/05/08 08:41:30;;;;;;;;;;;14.60;99.90;;;;;;5118610;28;19955;-61
2023/05/08 08:43:55;;;;;;;;;;;14.60;99.90;;;;;;5118731;28;19957;-61
2023/05/08 08:46:25;;;;;;;;;;;14.60;99.90;;;;;;5118695;28;19908;-61
2023/05/08 08:48:52;;;;;;;;;;;14.50;99.90;;;;;;5118410;28;19908;-61
2023/05/08 08:51:21;;;;;;;;;;;14.50;99.90;;;;;;5118228;28;19939;-61
2023/05/08 08:53:49;;;;;;;;;;;14.40;99.90;;;;;;5118468;28;19908;-61
2023/05/08 08:56:15;;;;;;;;;;;14.40;99.90;;;;;;5118128;28;20387;-61
2023/05/08 08:58:46;;;;;;;;;;;14.30;99.90;;;;;;5118911;28;20379;-61
2023/05/08 09:01:15;;;;;;;;;;;14.30;99.90;;;;;;5118190;28;19907;-61
2023/05/08 09:03:41;;;;;;;;;;;14.30;99.90;;;;;;5118356;28;20429;-61
2023/05/08 09:06:07;;;;;;;;;;;14.30;99.90;;;;;;5118681;28;20023;-61
2023/05/08 09:08:34;;;;;;;;;;;14.30;99.90;;;;;;5118513;28;19911;-61
2023/05/08 09:11:00;;;;;;;;;;;14.30;99.90;;;;;;5118761;28;19908;-61
2023/05/08 09:13:27;;;;;;;;;;;14.30;99.90;;;;;;5118066;28;19907;-61
2023/05/08 09:15:52;;;;;;;;;;;14.30;99.90;;;;;;5118337;28;19912;-61
2023/05/08 09:18:18;;;;;;;;;;;14.20;99.90;;;;;;5118396;28;19922;-61
2023/05/08 09:20:44;;;;;;;;;;;14.20;99.90;;;;;;5118380;28;19912;-61
2023/05/08 09:23:10;;;;;;;;;;;14.20;99.90;;;;;;5118354;28;19908;-61
2023/05/08 09:25:42;;;;;;;;;;;14.20;99.90;;;;;;5118404;28;19974;-61
2023/05/08 09:28:18;;;;;;;;;;;14.20;99.90;;;;;;5118319;28;19908;-61
2023/05/08 09:30:56;;;;;;;;;;;14.20;99.90;;;;;;5118616;28;20276;-61
2023/05/08 09:33:26;;;;;;;;;;;14.30;99.90;;;;;;5118307;28;19955;-61
2023/05/08 09:35:52;;;;;;;;;;;14.30;99.90;;;;;;5118161;28;19915;-61
2023/05/08 09:38:42;;;;;;;;;;;14.30;99.90;;;;;;5118199;28;20381;-61
2023/05/08 09:41:14;;;;;;;;;;;14.30;99.90;;;;;;5107954;28;19908;-61
2023/05/08 09:43:40;;;;;;;;;;;14.30;99.90;;;;;;5118386;28;19908;-61
2023/05/08 09:46:17;;;;;;;;;;;14.30;99.90;;;;;;5117974;28;19977;-61
2023/05/08 09:48:44;;;;;;;;;;;14.30;99.90;;;;;;5117941;28;19911;-61
2023/05/08 09:51:10;;;;;;;;;;;14.30;99.90;;;;;;5117926;28;19911;-61
2023/05/08 09:53:36;;;;;;;;;;;14.40;99.90;;;;;;5118241;28;19907;-60
2023/05/08 09:56:01;;;;;;;;;;;14.40;99.90;;;;;;5121237;28;19911;-60
2023/05/08 09:58:36;;;;;;;;;;;14.40;99.90;;;;;;5121481;28;19912;-61
2023/05/08 10:01:02;;;;;;;;;;;14.50;99.90;;;;;;5121761;28;19907;-61
2023/05/08 10:03:47;;;;;;;;;;;14.50;99.90;;;;;;5121749;28;19908;-61
2023/05/08 10:06:13;;;;;;;;;;;14.60;99.90;;;;;;5121733;28;19943;-61
2023/05/08 10:08:39;;;;;;;;;;;14.80;99.90;;;;;;5121680;28;19922;-61
2023/05/08 10:11:15;;;;;;;;;;;14.80;99.90;;;;;;5121776;28;20351;-61
2023/05/08 10:13:41;;;;;;;;;;;14.80;99.90;;;;;;5121291;28;20006;-60
2023/05/08 10:16:10;;;;;;;;;;;14.80;99.90;;;;;;5121467;28;20632;-61
2023/05/08 10:18:38;;;;;;;;;;;14.80;99.90;;;;;;5120993;28;19915;-60
2023/05/08 10:21:05;;;;;;;;;;;14.80;99.90;;;;;;5121019;28;20474;-61
2023/05/08 10:23:32;;;;;;;;;;;14.80;99.90;;;;;;5121215;28;19908;-61
2023/05/08 10:26:03;;;;;;;;;;;14.80;99.90;;;;;;5121502;28;20355;-61
2023/05/08 10:28:35;;;;;;;;;;;14.70;99.90;;;;;;5121107;28;20007;-61
2023/05/08 10:31:02;;;;;;;;;;;14.80;99.90;;;;;;5121203;28;19915;-61
2023/05/08 10:33:32;;;;;;;;;;;14.70;99.90;;;;;;5120988;28;19998;-60
2023/05/08 10:35:59;;;;;;;;;;;14.80;99.90;;;;;;5121102;28;19919;-61
2023/05/08 10:38:25;;;;;;;;;;;14.80;99.90;;;;;;5121131;28;19916;-61
2023/05/08 10:40:56;;;;;;;;;;;14.80;99.90;;;;;;5120817;28;19908;-61
2023/05/08 10:43:25;;;;;;;;;;;14.80;99.90;;;;;;5120547;28;20432;-61
2023/05/08 10:45:55;;;;;;;;;;;14.90;99.90;;;;;;5120707;28;19915;-61
2023/05/08 10:48:21;;;;;;;;;;;14.80;99.90;;;;;;5120885;28;19908;-61
2023/05/08 10:51:05;;;;;;;;;;;14.70;99.90;;;;;;5120878;28;19908;-61
2023/05/08 10:53:35;;;;;;;;;;;14.80;99.90;;;;;;5120763;28;19908;-60
2023/05/08 10:56:01;;;;;;;;;;;14.80;99.90;;;;;;5120809;28;19908;-61
2023/05/08 10:58:31;;;;;;;;;;;14.80;99.90;;;;;;5120574;28;20270;-61
2023/05/08 11:00:58;;;;;;;;;;;14.80;99.90;;;;;;5120654;28;19907;-61
2023/05/08 11:03:28;;;;;;;;;;;14.80;99.90;;;;;;5120323;27;19907;-61
2023/05/08 11:05:55;;;;;;;;;;;14.80;99.90;;;;;;5100350;28;19957;-61
2023/05/08 11:08:23;;;;;;;;;;;14.80;99.90;;;;;;5120389;28;19930;-60
2023/05/08 11:10:58;;;;;;;;;;;14.90;99.90;;;;;;5120006;28;19915;-61
2023/05/08 11:13:28;;;;;;;;;;;14.90;99.90;;;;;;5120101;28;20358;-61
2023/05/08 11:15:54;;;;;;;;;;;14.90;99.90;;;;;;5120216;28;20002;-61
2023/05/08 11:18:21;;;;;;;;;;;14.90;99.90;;;;;;5119776;28;19958;-61
2023/05/08 11:20:59;;;;;;;;;;;14.90;99.90;;;;;;5119952;28;20439;-61
2023/05/08 11:23:26;;;;;;;;;;;14.90;99.90;;;;;;5119931;28;20082;-61
2023/05/08 11:26:01;;;;;;;;;;;14.80;99.90;;;;;;5119951;28;19930;-61
2023/05/08 11:28:27;;;;;;;;;;;14.90;99.90;;;;;;5119803;28;19912;-60
2023/05/08 11:30:56;;;;;;;;;;;14.90;99.90;;;;;;5119991;28;19996;-61
2023/05/08 11:33:22;;;;;;;;;;;14.90;99.90;;;;;;5119871;28;20339;-61
2023/05/08 11:35:53;;;;;;;;;;;14.90;99.90;;;;;;5119542;28;20033;-60
2023/05/08 11:38:26;;;;;;;;;;;14.80;99.90;;;;;;5119654;28;19918;-61
2023/05/08 11:40:57;;;;;;;;;;;14.80;99.90;;;;;;5119965;28;20018;-61
2023/05/08 11:43:24;;;;;;;;;;;14.90;99.90;;;;;;5119467;28;19908;-61
2023/05/08 11:45:51;;;;;;;;;;;14.80;99.90;;;;;;5117612;28;20316;-61
2023/05/08 11:48:17;;;;;;;;;;;14.90;99.90;;;;;;5118408;28;19915;-61
2023/05/08 11:50:43;;;;;;;;;;;14.90;99.90;;;;;;5118891;28;20337;-61
2023/05/08 11:53:09;;;;;;;;;;;15.00;99.90;;;;;;5119442;28;19908;-61
2023/05/08 11:55:35;;;;;;;;;;;15.00;99.90;;;;;;5119412;28;19908;-61
2023/05/08 11:58:01;;;;;;;;;;;15.00;99.90;;;;;;5119461;28;19969;-61
2023/05/08 12:00:26;;;;;;;;;;;15.10;99.90;;;;;;5119283;28;19952;-60
2023/05/08 12:02:52;;;;;;;;;;;15.20;99.90;;;;;;5119106;28;20313;-61
2023/05/08 12:05:25;;;;;;;;;;;15.20;99.90;;;;;;5119354;28;19908;-61
2023/05/08 12:07:51;;;;;;;;;;;15.20;99.90;;;;;;5119387;28;19908;-61
2023/05/08 12:10:16;;;;;;;;;;;15.20;99.90;;;;;;5119297;28;20280;-61
2023/05/08 12:12:43;;;;;;;;;;;15.20;99.90;;;;;;5119443;28;19914;-61
2023/05/08 12:15:09;;;;;;;;;;;15.20;99.90;;;;;;5118755;28;19927;-61
2023/05/08 12:17:35;;;;;;;;;;;15.20;99.90;;;;;;5118496;28;20328;-60
2023/05/08 12:20:19;;;;;;;;;;;15.20;99.90;;;;;;5118927;28;20006;-61
2023/05/08 12:22:51;;;;;;;;;;;15.20;99.90;;;;;;5118873;28;20362;-61
2023/05/08 12:25:17;;;;;;;;;;;15.30;99.90;;;;;;5118790;28;20283;-60
2023/05/08 12:27:43;;;;;;;;;;;15.30;99.90;;;;;;5118658;28;19914;-61
2023/05/08 12:30:09;;;;;;;;;;;15.20;99.90;;;;;;5118655;28;19907;-61
2023/05/08 12:32:37;;;;;;;;;;;15.30;99.90;;;;;;5118675;28;20363;-61
2023/05/08 12:35:03;;;;;;;;;;;15.30;99.90;;;;;;5118618;28;19908;-61
2023/05/08 12:37:28;;;;;;;;;;;15.30;99.90;;;;;;5118903;28;19943;-61
2023/05/08 12:39:54;;;;;;;;;;;15.30;99.90;;;;;;5118901;28;19912;-62
2023/05/08 12:42:20;;;;;;;;;;;15.40;99.90;;;;;;5119025;28;20327;-61
2023/05/08 12:44:49;;;;;;;;;;;15.40;99.90;;;;;;5118838;28;19912;-61
2023/05/08 12:47:17;;;;;;;;;;;15.40;99.90;;;;;;5119172;28;19966;-61
2023/05/08 12:49:42;;;;;;;;;;;15.50;99.90;;;;;;5119019;28;19915;-62
2023/05/08 12:52:11;;;;;;;;;;;15.50;99.90;;;;;;5118816;28;19908;-61
2023/05/08 12:54:44;;;;;;;;;;;15.50;99.90;;;;;;5118727;28;19915;-61
2023/05/08 12:57:16;;;;;;;;;;;15.50;99.90;;;;;;5100135;28;19911;-62
2023/05/08 12:59:42;;;;;;;;;;;15.40;99.90;;;;;;5118667;28;20007;-62
2023/05/08 13:02:26;;;;;;;;;;;15.50;99.90;;;;;;5118834;28;19950;-61
2023/05/08 13:04:52;;;;;;;;;;;15.50;99.90;;;;;;5118914;28;19908;-62
2023/05/08 13:07:18;;;;;;;;;;;15.50;99.90;;;;;;5118839;28;20362;-61
2023/05/08 13:09:57;;;;;;;;;;;15.60;99.90;;;;;;5118573;28;19935;-61
2023/05/08 13:12:22;;;;;;;;;;;15.60;99.90;;;;;;5118818;28;19933;-61
2023/05/08 13:14:48;;;;;;;;;;;15.60;99.90;;;;;;5118367;28;19955;-61
2023/05/08 13:17:17;;;;;;;;;;;15.70;99.90;;;;;;5118471;28;19970;-61
2023/05/08 13:19:43;;;;;;;;;;;15.70;99.90;;;;;;5118845;28;19908;-61
2023/05/08 13:22:08;;;;;;;;;;;15.70;99.90;;;;;;5118454;28;19915;-61
2023/05/08 13:24:34;;;;;;;;;;;15.70;99.90;;;;;;5118772;28;19918;-62
2023/05/08 13:27:00;;;;;;;;;;;15.70;99.90;;;;;;5118384;28;19911;-61
2023/05/08 13:29:26;;;;;;;;;;;15.70;99.90;;;;;;5119873;28;20278;-61
2023/05/08 13:31:51;;;;;;;;;;;15.70;99.90;;;;;;5122561;28;19908;-61
2023/05/08 13:34:17;;;;;;;;;;;15.70;99.90;;;;;;5122518;28;19908;-61
2023/05/08 13:36:43;;;;;;;;;;;15.80;99.90;;;;;;5122842;28;20377;-62
2023/05/08 13:39:08;;;;;;;;;;;15.70;99.90;;;;;;5122168;28;20033;-62
2023/05/08 13:41:34;;;;;;;;;;;15.70;99.90;;;;;;5122376;28;19912;-62
2023/05/08 13:44:00;;;;;;;;;;;15.70;99.90;;;;;;5122400;28;20438;-61
2023/05/08 13:46:25;;;;;;;;;;;15.70;99.90;;;;;;5122268;28;19908;-61
2023/05/08 13:48:51;;;;;;;;;;;15.70;99.90;;;;;;5122591;28;19907;-62
2023/05/08 13:51:16;;;;;;;;;;;15.70;99.90;;;;;;5122172;28;19914;-61
2023/05/08 13:53:42;;;;;;;;;;;15.70;99.90;;;;;;5122632;28;19908;-61
2023/05/08 13:56:08;;;;;;;;;;;15.70;99.90;;;;;;5122014;28;20410;-62
2023/05/08 13:58:33;;;;;;;;;;;15.70;99.90;;;;;;5122451;28;20462;-61
2023/05/08 14:01:00;;;;;;;;;;;15.70;99.90;;;;;;5121997;28;19952;-61
2023/05/08 14:03:25;;;;;;;;;;;15.60;99.90;;;;;;5121984;28;19995;-61
2023/05/08 14:05:51;;;;;;;;;;;15.60;99.90;;;;;;5122177;28;19959;-61
2023/05/08 14:08:17;;;;;;;;;;;15.60;99.90;;;;;;5122031;28;20006;-61
2023/05/08 14:10:42;;;;;;;;;;;15.50;99.90;;;;;;5121613;28;19908;-62
2023/05/08 14:13:08;;;;;;;;;;;15.60;99.90;;;;;;5122018;28;19919;-61
2023/05/08 14:15:33;;;;;;;;;;;15.60;99.90;;;;;;5121567;28;19931;-61
2023/05/08 14:17:59;;;;;;;;;;;15.60;99.90;;;;;;5121408;28;19912;-61
2023/05/08 14:20:25;;;;;;;;;;;15.60;99.90;;;;;;5121600;28;19954;-61